KVCT/VCT METAR and TAF weather

Enter ICAO airport designator
Station Type Date Time Source
KVCT METAR 2020/09/18 22:51 UTC NOAA

KVCT 182251Z 03015G22KT 10SM CLR 32/10 A2992 RMK AO2 SLP130 T03220100


Station Type Date Time Source
KVCT Decoded METAR 2020/09/18 22:51 UTC NOAA

VICTORIA REGIONAL AIRPORT, TX, United States (KVCT) 28-52N 96-56W 31M
Sep 18, 2020 - 06:51 PM EDT / 2020.09.18 2251 UTC
Wind: from the NNE (030 degrees) at 17 MPH (15 KT) gusting to 25 MPH (22 KT):0
Visibility: 10 mile(s):0
Sky conditions: clear
Temperature: 90.0 F (32.2 C)
Dew Point: 50.0 F (10.0 C)
Relative Humidity: 25%
Pressure (altimeter): 29.92 in. Hg (1013 hPa)
ob: KVCT 182251Z 03015G22KT 10SM CLR 32/10 A2992 RMK AO2 SLP130 T03220100
cycle: 23

Station Type Date Time Source
KVCT TAF 2020/09/18 18:22 UTC NOAA

TAF KVCT 181720Z 1818/1918 04012KT P6SM BKN050
FM182200 02010G17KT P6SM VCTS SCT040CB
FM190300 01006KT P6SM SCT250
FM191600 03012G19KT P6SM FEW050

Example: see airport list